McComb, Ohio
Current Conditions -  °F | °C
As of 7:53 AM on Wednesday 26 Nov 2014 (Local Time) from KFDY Reporting Station
Overcast Overcast  
Wind Chill: 22°   Ceiling: 1900
Heat Index: 30°   Visibility: 10mi
Dew Point: 21°   Wind: 9mph
Humidity: 69%   Direction: 60°ENE
Pressure: 30.14"   Gusts: NA
Location:  41.11°N, 83.79°W
Report Text: KFDY 261253Z AUTO 06008KT 10SM OVC019 M01/M06 A3014 RMK AO2 SLP213 T10111061
Loading
Personal Weather Stations






























Interactive Weather Map New forecast layout! Learn more

10-Day Weather Forecast

Advertisements
Track Severe Weather on mobile